createdAt,value
2018-05-12T00:00:44.211Z,16.80
2018-05-12T00:03:12.725Z,16.70
2018-05-12T00:05:40.982Z,16.70
2018-05-12T00:08:09.252Z,16.80
2018-05-12T00:10:37.542Z,16.60
2018-05-12T00:13:05.780Z,16.60
2018-05-12T00:15:34.036Z,16.70
2018-05-12T00:18:02.312Z,16.70
2018-05-12T00:20:30.635Z,16.70
2018-05-12T00:22:58.827Z,16.60
2018-05-12T00:25:27.156Z,16.50
2018-05-12T00:27:56.192Z,16.40
2018-05-12T00:30:24.566Z,16.40
2018-05-12T00:32:52.841Z,16.40
2018-05-12T00:35:21.088Z,16.30
2018-05-12T00:37:49.331Z,16.30
2018-05-12T00:40:17.612Z,16.10
2018-05-12T00:42:45.872Z,16.00
2018-05-12T00:45:14.120Z,15.90
2018-05-12T00:47:42.612Z,16.00
2018-05-12T00:50:10.875Z,15.90
2018-05-12T00:52:39.123Z,15.80
2018-05-12T00:55:07.399Z,15.80
2018-05-12T00:57:36.432Z,15.70
2018-05-12T01:00:05.141Z,15.70
2018-05-12T01:02:33.418Z,15.70
2018-05-12T01:05:01.667Z,15.60
2018-05-12T01:07:29.919Z,15.60
2018-05-12T01:09:58.651Z,15.70
2018-05-12T01:12:26.976Z,15.70
2018-05-12T01:14:56.000Z,15.70
2018-05-12T01:17:24.283Z,15.60
2018-05-12T01:19:52.543Z,15.60
2018-05-12T01:22:20.797Z,15.50
2018-05-12T01:24:49.871Z,15.30
2018-05-12T01:27:18.136Z,15.30
2018-05-12T01:29:46.378Z,15.30
2018-05-12T01:32:15.131Z,15.30
2018-05-12T01:34:44.294Z,15.30
2018-05-12T01:37:12.535Z,15.30
2018-05-12T01:39:40.816Z,15.30
2018-05-12T01:42:09.074Z,15.10
2018-05-12T01:44:38.100Z,15.10
2018-05-12T01:47:06.379Z,15.10
2018-05-12T01:49:34.635Z,15.10
2018-05-12T01:52:03.544Z,15.10
2018-05-12T01:54:32.724Z,14.90
2018-05-12T01:57:00.978Z,15.00
2018-05-12T01:59:29.224Z,15.00
2018-05-12T02:01:57.829Z,14.90
2018-05-12T02:04:26.096Z,14.80
2018-05-12T02:06:54.347Z,14.90
2018-05-12T02:09:22.613Z,14.90
2018-05-12T02:11:51.406Z,14.90
2018-05-12T02:14:20.420Z,14.80
2018-05-12T02:16:48.998Z,14.70
2018-05-12T02:19:17.239Z,14.60
2018-05-12T02:21:45.495Z,14.70
2018-05-12T02:24:13.772Z,14.70
2018-05-12T02:26:42.044Z,14.70
2018-05-12T02:29:10.297Z,14.50
2018-05-12T02:31:38.574Z,14.50
2018-05-12T02:34:06.828Z,14.30
2018-05-12T02:36:35.095Z,14.40
2018-05-12T02:39:03.688Z,14.40
2018-05-12T02:41:31.940Z,14.40
2018-05-12T02:44:00.200Z,14.40
2018-05-12T02:46:29.115Z,14.50
2018-05-12T02:48:57.376Z,14.50
2018-05-12T02:51:25.624Z,14.50
2018-05-12T02:53:53.905Z,14.50
2018-05-12T02:56:22.927Z,14.50
2018-05-12T02:58:51.176Z,14.50
2018-05-12T03:01:20.446Z,14.50
2018-05-12T03:03:48.955Z,14.60
2018-05-12T03:06:18.426Z,14.50
2018-05-12T03:08:46.708Z,14.40
2018-05-12T03:11:14.959Z,14.40
2018-05-12T03:13:43.216Z,14.30
2018-05-12T03:16:11.492Z,14.30
2018-05-12T03:18:39.764Z,14.20
2018-05-12T03:21:08.012Z,14.10
2018-05-12T03:23:36.651Z,14.10
2018-05-12T03:26:04.923Z,14.10
2018-05-12T03:28:34.261Z,14.20
2018-05-12T03:31:02.537Z,14.10
2018-05-12T03:33:31.735Z,14.10
2018-05-12T03:36:00.764Z,14.00
2018-05-12T03:38:29.091Z,14.00
2018-05-12T03:40:57.347Z,14.00
2018-05-12T03:43:25.623Z,14.10
2018-05-12T03:45:53.948Z,14.20
2018-05-12T03:48:22.195Z,14.20
2018-05-12T03:50:50.613Z,14.10
2018-05-12T03:53:20.111Z,14.00
2018-05-12T03:55:48.370Z,13.90
2018-05-12T03:58:16.628Z,13.90
2018-05-12T04:00:44.900Z,13.90
2018-05-12T04:03:13.160Z,13.90
2018-05-12T04:05:53.849Z,14.00
2018-05-12T04:08:34.006Z,14.10
2018-05-12T04:11:14.167Z,14.10
2018-05-12T04:13:42.412Z,14.10
2018-05-12T04:16:10.668Z,14.00
2018-05-12T04:18:39.731Z,13.90
2018-05-12T04:21:08.057Z,13.90
2018-05-12T04:23:36.316Z,13.90
2018-05-12T04:26:04.767Z,14.00
2018-05-12T04:28:33.017Z,14.00
2018-05-12T04:31:02.554Z,14.00
2018-05-12T04:33:30.826Z,13.90
2018-05-12T04:36:01.660Z,13.90
2018-05-12T04:38:29.908Z,13.90
2018-05-12T04:40:58.187Z,14.00
2018-05-12T04:43:26.435Z,14.00
2018-05-12T04:45:54.716Z,14.10
2018-05-12T04:48:23.111Z,14.10
2018-05-12T04:50:51.371Z,14.10
2018-05-12T04:53:19.624Z,14.10
2018-05-12T04:55:48.099Z,14.00
2018-05-12T04:58:18.016Z,14.00
2018-05-12T05:00:47.044Z,14.10
2018-05-12T05:03:15.315Z,14.10
2018-05-12T05:05:43.787Z,14.20
2018-05-12T05:08:12.107Z,14.20
2018-05-12T05:10:40.579Z,14.20
2018-05-12T05:13:08.823Z,14.20
2018-05-12T05:15:37.091Z,14.30
2018-05-12T05:18:05.368Z,14.20
2018-05-12T05:20:33.685Z,14.20
2018-05-12T05:23:01.941Z,14.20
2018-05-12T05:25:30.215Z,14.40
2018-05-12T05:27:58.472Z,14.50
2018-05-12T05:30:26.730Z,14.50
2018-05-12T05:32:55.691Z,14.60
2018-05-12T05:35:23.939Z,14.70
2018-05-12T05:37:52.191Z,14.70
2018-05-12T05:40:20.471Z,14.70
2018-05-12T05:42:49.497Z,14.70
2018-05-12T05:45:17.740Z,14.70
2018-05-12T05:47:46.020Z,14.70
2018-05-12T05:50:14.282Z,14.80
2018-05-12T05:52:42.540Z,14.80
2018-05-12T05:55:11.155Z,14.90
2018-05-12T05:57:39.410Z,14.90
2018-05-12T06:00:07.668Z,15.00
2018-05-12T06:02:35.952Z,14.90
2018-05-12T06:05:04.220Z,15.00
2018-05-12T06:07:33.928Z,15.00
2018-05-12T06:10:02.204Z,15.00
2018-05-12T06:12:30.456Z,15.00
2018-05-12T06:14:58.708Z,15.10
2018-05-12T06:17:27.429Z,15.20
2018-05-12T06:19:55.773Z,15.20
2018-05-12T06:22:24.034Z,15.30
2018-05-12T06:24:52.891Z,15.30
2018-05-12T06:27:21.163Z,15.40
2018-05-12T06:29:49.415Z,15.40
2018-05-12T06:32:17.697Z,15.40
2018-05-12T06:34:46.057Z,15.50
2018-05-12T06:37:14.317Z,15.60
2018-05-12T06:39:43.272Z,15.70
2018-05-12T06:42:11.530Z,15.70
2018-05-12T06:44:39.784Z,15.80
2018-05-12T06:47:08.068Z,15.80
2018-05-12T06:49:36.327Z,15.90
2018-05-12T06:52:05.357Z,16.10
2018-05-12T06:54:33.628Z,16.10
2018-05-12T06:57:01.939Z,16.20
2018-05-12T06:59:30.196Z,16.20
2018-05-12T07:01:58.882Z,16.20
2018-05-12T07:04:27.132Z,16.30
2018-05-12T07:06:55.389Z,16.40
2018-05-12T07:09:23.984Z,16.50
2018-05-12T07:11:52.365Z,16.50
2018-05-12T07:14:21.612Z,16.60
2018-05-12T07:16:49.891Z,16.60
2018-05-12T07:19:18.164Z,16.70
2018-05-12T07:21:46.404Z,16.70
2018-05-12T07:24:14.751Z,16.70
2018-05-12T07:26:43.032Z,16.80
2018-05-12T07:29:11.271Z,16.80
2018-05-12T07:31:39.548Z,16.90
2018-05-12T07:34:07.811Z,16.90
2018-05-12T07:36:36.088Z,17.00
2018-05-12T07:39:04.448Z,17.00
2018-05-12T07:41:32.642Z,17.10
2018-05-12T07:44:00.901Z,17.20
2018-05-12T07:46:29.391Z,17.40
2018-05-12T07:48:57.648Z,17.40
2018-05-12T07:51:25.958Z,17.50
2018-05-12T07:53:54.335Z,17.50
2018-05-12T07:56:22.575Z,17.60
2018-05-12T07:58:50.843Z,17.60
2018-05-12T08:01:19.128Z,17.70
2018-05-12T08:03:47.544Z,17.80
2018-05-12T08:06:16.410Z,17.80
2018-05-12T08:08:44.739Z,17.80
2018-05-12T08:11:14.086Z,18.00
2018-05-12T08:13:42.338Z,18.00
2018-05-12T08:16:10.615Z,18.10
2018-05-12T08:18:38.879Z,18.20
2018-05-12T08:21:07.904Z,18.30
2018-05-12T08:23:36.216Z,18.30
2018-05-12T08:26:04.836Z,18.40
2018-05-12T08:28:33.063Z,18.50
2018-05-12T08:31:01.755Z,18.50
2018-05-12T08:33:30.004Z,18.70
2018-05-12T08:35:58.272Z,18.80
2018-05-12T08:38:26.864Z,18.90
2018-05-12T08:40:55.128Z,19.00
2018-05-12T08:43:23.382Z,19.10
2018-05-12T08:45:51.660Z,19.30
2018-05-12T08:48:20.700Z,19.50
2018-05-12T08:50:48.935Z,19.50
2018-05-12T08:53:17.464Z,19.60
2018-05-12T08:55:45.716Z,19.50
2018-05-12T08:58:13.981Z,19.60
2018-05-12T09:00:42.255Z,19.70
2018-05-12T09:03:11.505Z,19.90
2018-05-12T09:05:39.732Z,19.80
2018-05-12T09:08:08.009Z,19.90
2018-05-12T09:10:36.268Z,20.00
2018-05-12T09:13:04.776Z,20.10
2018-05-12T09:15:34.412Z,20.30
2018-05-12T09:18:02.663Z,20.30
2018-05-12T09:20:31.264Z,20.40
2018-05-12T09:22:59.622Z,20.50
2018-05-12T09:25:27.904Z,20.60
2018-05-12T09:27:56.908Z,20.60
2018-05-12T09:30:25.188Z,20.60
2018-05-12T09:32:53.457Z,20.60
2018-05-12T09:35:21.880Z,20.70
2018-05-12T09:37:50.769Z,20.80
2018-05-12T09:40:19.976Z,20.90
2018-05-12T09:42:48.219Z,20.90
2018-05-12T09:45:16.480Z,20.90
2018-05-12T09:47:44.724Z,20.90
2018-05-12T09:50:12.980Z,21.00
2018-05-12T09:52:41.255Z,21.10
2018-05-12T09:55:09.636Z,21.10
2018-05-12T09:57:38.011Z,21.20
2018-05-12T10:00:06.799Z,21.30
2018-05-12T10:02:35.071Z,21.30
2018-05-12T10:05:06.351Z,21.50
2018-05-12T10:07:34.632Z,21.60
2018-05-12T10:10:03.652Z,21.80
2018-05-12T10:12:31.988Z,21.80
2018-05-12T10:15:01.341Z,22.00
2018-05-12T10:17:29.655Z,22.10
2018-05-12T10:19:58.052Z,22.20
2018-05-12T10:22:26.495Z,22.30
2018-05-12T10:24:54.755Z,22.40
2018-05-12T10:27:23.184Z,22.40
2018-05-12T10:29:51.456Z,22.50
2018-05-12T10:32:21.217Z,22.70
2018-05-12T10:34:49.479Z,22.70
2018-05-12T10:37:18.592Z,22.90
2018-05-12T10:39:46.849Z,23.10
2018-05-12T10:42:15.274Z,23.20
2018-05-12T10:44:44.056Z,23.20
2018-05-12T10:47:12.356Z,23.40
2018-05-12T10:49:40.612Z,23.50
2018-05-12T10:52:10.081Z,23.80
2018-05-12T10:54:38.415Z,23.90
2018-05-12T10:57:06.675Z,24.10
2018-05-12T10:59:35.001Z,24.40
2018-05-12T11:02:04.176Z,24.80
2018-05-12T11:04:32.492Z,24.70
2018-05-12T11:07:01.313Z,25.30
2018-05-12T11:09:29.789Z,26.00
2018-05-12T11:11:58.032Z,26.90
2018-05-12T11:14:26.399Z,28.40
2018-05-12T11:16:55.948Z,30.60
2018-05-12T11:19:24.360Z,30.50
2018-05-12T11:21:53.509Z,31.10
2018-05-12T11:24:22.104Z,31.10
2018-05-12T11:26:50.724Z,30.30
2018-05-12T11:29:19.479Z,29.90
2018-05-12T11:31:49.940Z,29.80
2018-05-12T11:34:18.205Z,29.80
2018-05-12T11:36:47.644Z,29.70
2018-05-12T11:39:16.647Z,29.50
2018-05-12T11:41:45.659Z,29.10
2018-05-12T11:44:14.050Z,29.10
2018-05-12T11:46:42.283Z,28.70
2018-05-12T11:49:10.679Z,28.50
2018-05-12T11:51:39.241Z,28.20
2018-05-12T11:54:08.515Z,28.00
2018-05-12T11:56:36.983Z,27.80
2018-05-12T11:59:05.240Z,27.70
2018-05-12T12:01:33.572Z,27.80
2018-05-12T12:04:01.982Z,27.90
2018-05-12T12:06:31.048Z,28.20
2018-05-12T12:08:59.360Z,28.10
2018-05-12T12:11:28.353Z,30.30
2018-05-12T12:13:56.671Z,30.30
2018-05-12T12:16:24.916Z,31.40
2018-05-12T12:18:53.248Z,31.20
2018-05-12T12:21:21.540Z,30.60
2018-05-12T12:23:50.550Z,32.20
2018-05-12T12:26:21.760Z,32.60
2018-05-12T12:28:50.024Z,32.50
2018-05-12T12:31:18.279Z,32.20
2018-05-12T12:33:46.896Z,32.20
2018-05-12T12:36:15.268Z,33.10
2018-05-12T12:38:43.511Z,34.20
2018-05-12T12:41:11.757Z,35.20
2018-05-12T12:43:40.781Z,36.10
2018-05-12T12:46:09.060Z,36.10
2018-05-12T12:48:37.313Z,36.90
2018-05-12T12:51:05.588Z,37.30
2018-05-12T12:53:33.842Z,37.40
2018-05-12T12:56:02.367Z,38.00
2018-05-12T12:58:31.085Z,38.80
2018-05-12T13:00:59.312Z,39.30
2018-05-12T13:03:27.700Z,39.20
2018-05-12T13:05:56.053Z,39.20
2018-05-12T13:08:24.344Z,39.50
2018-05-12T13:10:52.584Z,39.90
2018-05-12T13:13:20.984Z,40.10
2018-05-12T13:15:49.214Z,40.40
2018-05-12T13:18:17.811Z,40.80
2018-05-12T13:20:46.131Z,41.00
2018-05-12T13:23:15.332Z,40.60
2018-05-12T13:25:44.487Z,40.60
2018-05-12T13:28:12.757Z,40.60
2018-05-12T13:30:41.000Z,41.10
2018-05-12T13:33:09.424Z,41.30
2018-05-12T13:35:37.840Z,40.70
2018-05-12T13:38:07.765Z,39.80
2018-05-12T13:40:36.772Z,39.40
2018-05-12T13:43:05.459Z,39.40
2018-05-12T13:45:34.489Z,38.50
2018-05-12T13:48:02.729Z,38.40
2018-05-12T13:50:31.012Z,38.20
2018-05-12T13:53:06.491Z,37.20
2018-05-12T13:55:35.123Z,36.00
2018-05-12T13:58:04.603Z,35.30
2018-05-12T14:00:33.312Z,35.20
2018-05-12T14:03:02.652Z,34.40
2018-05-12T14:05:31.024Z,34.40
2018-05-12T14:07:59.268Z,33.90
2018-05-12T14:10:27.544Z,33.50
2018-05-12T14:12:55.909Z,33.10
2018-05-12T14:15:24.263Z,32.80
2018-05-12T14:17:52.539Z,32.70
2018-05-12T14:20:21.500Z,33.80
2018-05-12T14:22:49.744Z,35.70
2018-05-12T14:25:18.984Z,38.60
2018-05-12T14:27:47.377Z,38.50
2018-05-12T14:30:15.531Z,39.30
2018-05-12T14:32:43.801Z,40.10
2018-05-12T14:35:12.284Z,40.80
2018-05-12T14:37:40.536Z,41.20
2018-05-12T14:40:08.811Z,41.10
2018-05-12T14:42:37.763Z,39.80
2018-05-12T14:45:06.656Z,38.80
2018-05-12T14:47:35.235Z,39.10
2018-05-12T14:50:03.531Z,38.50
2018-05-12T14:52:31.787Z,38.30
2018-05-12T14:55:00.059Z,39.20
2018-05-12T14:57:28.346Z,40.20
2018-05-12T14:59:57.136Z,40.70
2018-05-12T15:02:25.414Z,40.90
2018-05-12T15:04:53.644Z,40.90
2018-05-12T15:07:22.021Z,41.10
2018-05-12T15:09:50.764Z,41.50
2018-05-12T15:12:19.032Z,41.90
2018-05-12T15:14:47.282Z,41.60
2018-05-12T15:17:15.554Z,41.10
2018-05-12T15:19:43.803Z,41.40
2018-05-12T15:22:12.434Z,41.90
2018-05-12T15:24:40.687Z,42.20
2018-05-12T15:27:08.997Z,42.20
2018-05-12T15:29:37.235Z,42.20
2018-05-12T15:32:05.571Z,42.40
2018-05-12T15:34:33.808Z,42.50
2018-05-12T15:37:02.236Z,42.50
2018-05-12T15:39:31.307Z,42.40
2018-05-12T15:41:59.538Z,42.40
2018-05-12T15:44:27.780Z,42.40
2018-05-12T15:46:56.052Z,42.50
2018-05-12T15:49:24.300Z,42.40
2018-05-12T15:51:53.719Z,42.30
2018-05-12T15:54:22.039Z,42.40
2018-05-12T15:56:50.287Z,42.30
2018-05-12T15:59:18.597Z,42.40
2018-05-12T16:01:46.856Z,42.40
2018-05-12T16:04:15.310Z,42.30
2018-05-12T16:06:43.568Z,42.10
2018-05-12T16:09:12.607Z,41.80
2018-05-12T16:11:42.022Z,41.60
2018-05-12T16:14:10.352Z,41.30
2018-05-12T16:16:38.817Z,41.20
2018-05-12T16:19:07.056Z,41.00
2018-05-12T16:21:35.315Z,40.90
2018-05-12T16:24:03.610Z,40.80
2018-05-12T16:26:31.868Z,40.70
2018-05-12T16:29:00.232Z,40.70
2018-05-12T16:31:28.572Z,40.80
2018-05-12T16:33:56.784Z,40.90
2018-05-12T16:36:25.256Z,41.10
2018-05-12T16:38:53.731Z,41.20
2018-05-12T16:41:22.012Z,41.20
2018-05-12T16:43:50.273Z,41.10
2018-05-12T16:46:18.563Z,40.80
2018-05-12T16:48:46.808Z,40.60
2018-05-12T16:51:15.063Z,40.50
2018-05-12T16:53:43.383Z,40.40
2018-05-12T16:56:11.630Z,40.00
2018-05-12T16:58:39.935Z,39.50
2018-05-12T17:01:08.416Z,38.90
2018-05-12T17:03:36.668Z,38.50
2018-05-12T17:06:05.087Z,38.20
2018-05-12T17:08:33.360Z,37.90
2018-05-12T17:11:01.610Z,37.70
2018-05-12T17:13:29.940Z,37.70
2018-05-12T17:15:58.967Z,37.40
2018-05-12T17:18:27.219Z,37.30
2018-05-12T17:20:55.483Z,37.00
2018-05-12T17:23:23.852Z,36.60
2018-05-12T17:25:52.454Z,36.20
2018-05-12T17:28:22.793Z,35.30
2018-05-12T17:30:51.059Z,35.30
2018-05-12T17:33:20.076Z,34.60
2018-05-12T17:35:48.345Z,34.50
2018-05-12T17:38:16.803Z,34.20
2018-05-12T17:40:46.464Z,33.90
2018-05-12T17:43:14.715Z,33.50
2018-05-12T17:45:44.120Z,33.10
2018-05-12T17:48:12.356Z,32.70
2018-05-12T17:50:41.132Z,32.40
2018-05-12T17:53:09.412Z,32.00
2018-05-12T17:55:37.669Z,31.80
2018-05-12T17:58:06.041Z,31.50
2018-05-12T18:00:34.311Z,31.30
2018-05-12T18:03:03.641Z,31.20
2018-05-12T18:05:32.020Z,31.00
2018-05-12T18:08:00.805Z,30.80
2018-05-12T18:10:29.047Z,30.70
2018-05-12T18:12:57.299Z,30.50
2018-05-12T18:15:26.042Z,30.40
2018-05-12T18:17:55.194Z,30.30
2018-05-12T18:20:23.440Z,30.10
2018-05-12T18:22:52.108Z,29.90
2018-05-12T18:25:20.358Z,29.80
2018-05-12T18:27:48.596Z,29.60
2018-05-12T18:30:16.912Z,29.40
2018-05-12T18:32:46.404Z,29.20
2018-05-12T18:35:14.649Z,29.10
2018-05-12T18:37:43.149Z,29.00
2018-05-12T18:40:11.528Z,28.90
2018-05-12T18:42:40.539Z,28.50
2018-05-12T18:45:08.908Z,28.50
2018-05-12T18:47:37.232Z,28.40
2018-05-12T18:50:05.568Z,28.30
2018-05-12T18:52:34.080Z,28.20
2018-05-12T18:55:02.367Z,28.10
2018-05-12T18:57:31.686Z,27.90
2018-05-12T19:00:00.255Z,27.90
2018-05-12T19:02:29.741Z,27.70
2018-05-12T19:04:58.126Z,27.60
2018-05-12T19:07:27.469Z,27.60
2018-05-12T19:09:56.492Z,27.30
2018-05-12T19:12:24.742Z,27.30
2018-05-12T19:14:53.936Z,27.10
2018-05-12T19:17:22.402Z,27.10
2018-05-12T19:19:50.652Z,27.00
2018-05-12T19:22:19.300Z,26.80
2018-05-12T19:24:47.773Z,26.70
2018-05-12T19:27:16.239Z,26.50
2018-05-12T19:29:45.284Z,26.40
2018-05-12T19:32:13.612Z,26.30
2018-05-12T19:34:43.692Z,26.10
2018-05-12T19:37:12.378Z,26.10
2018-05-12T19:39:40.604Z,26.10
2018-05-12T19:42:09.139Z,26.00
2018-05-12T19:44:37.396Z,25.90
2018-05-12T19:47:05.635Z,25.90
2018-05-12T19:49:34.257Z,25.80
2018-05-12T19:52:02.504Z,25.80
2018-05-12T19:54:30.852Z,25.70
2018-05-12T19:56:59.750Z,25.70
2018-05-12T19:59:28.664Z,25.70
2018-05-12T20:01:56.885Z,25.50
2018-05-12T20:04:25.140Z,25.40
2018-05-12T20:06:53.419Z,25.30
2018-05-12T20:09:21.735Z,25.20
2018-05-12T20:11:50.028Z,25.10
2018-05-12T20:14:19.233Z,25.10
2018-05-12T20:16:48.382Z,24.90
2018-05-12T20:19:16.615Z,24.80
2018-05-12T20:21:46.767Z,24.80
2018-05-12T20:24:15.008Z,24.80
2018-05-12T20:26:44.021Z,24.70
2018-05-12T20:29:12.485Z,24.60
2018-05-12T20:31:41.516Z,24.50
2018-05-12T20:34:09.755Z,24.50
2018-05-12T20:36:38.020Z,24.50
2018-05-12T20:39:06.264Z,24.40
2018-05-12T20:41:34.783Z,24.40
2018-05-12T20:44:03.192Z,24.30
2018-05-12T20:46:31.914Z,24.20
2018-05-12T20:49:00.679Z,24.20
2018-05-12T20:51:29.196Z,24.10
2018-05-12T20:53:57.444Z,24.10
2018-05-12T20:56:26.595Z,24.10
2018-05-12T20:58:55.629Z,23.90
2018-05-12T21:01:23.883Z,23.90
2018-05-12T21:03:52.136Z,23.90
2018-05-12T21:06:20.660Z,23.80
2018-05-12T21:08:48.999Z,23.80
2018-05-12T21:11:18.117Z,23.60
2018-05-12T21:13:46.392Z,23.60
2018-05-12T21:16:14.719Z,23.60
2018-05-12T21:18:42.984Z,23.50
2018-05-12T21:21:11.255Z,23.50
2018-05-12T21:23:39.871Z,23.40
2018-05-12T21:26:08.248Z,23.30
2018-05-12T21:28:37.617Z,23.20
2018-05-12T21:31:05.937Z,23.20
2018-05-12T21:33:34.183Z,23.10
2018-05-12T21:36:02.764Z,23.10
2018-05-12T21:38:31.030Z,23.00
2018-05-12T21:40:59.275Z,23.00
2018-05-12T21:43:27.555Z,22.90
2018-05-12T21:45:55.887Z,22.90
2018-05-12T21:48:24.119Z,22.80
2018-05-12T21:50:52.463Z,22.80
2018-05-12T21:53:20.764Z,22.80
2018-05-12T21:55:49.831Z,22.70
2018-05-12T21:58:18.087Z,22.70
2018-05-12T22:00:46.332Z,22.60
2018-05-12T22:03:15.033Z,22.60
2018-05-12T22:05:43.283Z,22.50
2018-05-12T22:08:11.547Z,22.50
2018-05-12T22:10:39.788Z,22.40
2018-05-12T22:13:08.112Z,22.40
2018-05-12T22:15:36.368Z,22.30
2018-05-12T22:18:04.616Z,22.20
2018-05-12T22:20:32.924Z,22.20
2018-05-12T22:23:02.912Z,22.10
2018-05-12T22:25:31.174Z,22.10
2018-05-12T22:27:59.591Z,22.20
2018-05-12T22:30:28.603Z,22.20
2018-05-12T22:32:56.968Z,22.10
2018-05-12T22:35:26.306Z,22.00
2018-05-12T22:37:55.002Z,21.90
2018-05-12T22:40:23.336Z,22.00
2018-05-12T22:42:52.493Z,21.90
2018-05-12T22:45:21.364Z,21.90
2018-05-12T22:47:49.599Z,21.90
2018-05-12T22:50:17.879Z,21.80
2018-05-12T22:52:46.900Z,21.70
2018-05-12T22:55:17.262Z,21.70
2018-05-12T22:57:45.721Z,21.70
2018-05-12T23:00:15.036Z,21.60
2018-05-12T23:02:43.308Z,21.60
2018-05-12T23:05:11.612Z,21.50
2018-05-12T23:07:39.864Z,21.50
2018-05-12T23:10:08.134Z,21.50
2018-05-12T23:12:36.406Z,21.50
2018-05-12T23:15:04.659Z,21.40
2018-05-12T23:17:32.918Z,21.40
2018-05-12T23:20:01.477Z,21.30
2018-05-12T23:22:29.852Z,21.30
2018-05-12T23:24:58.104Z,21.20
2018-05-12T23:27:26.640Z,21.20
2018-05-12T23:29:55.838Z,21.10
2018-05-12T23:32:24.179Z,21.10
2018-05-12T23:34:52.936Z,21.10
2018-05-12T23:37:21.193Z,21.00
2018-05-12T23:39:49.454Z,20.90
2018-05-12T23:42:18.674Z,20.90
2018-05-12T23:44:47.654Z,20.70
2018-05-12T23:47:15.921Z,20.70
2018-05-12T23:49:44.197Z,20.70
2018-05-12T23:52:12.516Z,20.80
2018-05-12T23:54:40.772Z,20.70
2018-05-12T23:57:09.038Z,20.60
2018-05-12T23:59:38.052Z,20.40
